sensor_id;sensor_type;location;lat;lon;timestamp;pressure;altitude;pressure_sealevel;temperature;humidity
57600;BME280;43426;43.594;24.334;2024-02-21T00:01:16;101967.47;;;1.75;100.00
57600;BME280;43426;43.594;24.334;2024-02-21T00:03:42;101980.50;;;1.79;100.00
57600;BME280;43426;43.594;24.334;2024-02-21T00:06:07;101977.31;;;1.73;100.00
57600;BME280;43426;43.594;24.334;2024-02-21T00:08:32;101973.81;;;1.72;100.00
57600;BME280;43426;43.594;24.334;2024-02-21T00:10:58;101970.34;;;1.70;100.00
57600;BME280;43426;43.594;24.334;2024-02-21T00:13:23;101974.13;;;1.66;100.00
57600;BME280;43426;43.594;24.334;2024-02-21T00:15:49;101966.84;;;1.69;100.00
57600;BME280;43426;43.594;24.334;2024-02-21T00:18:14;101966.66;;;1.73;100.00
57600;BME280;43426;43.594;24.334;2024-02-21T00:20:40;101961.09;;;1.77;100.00
57600;BME280;43426;43.594;24.334;2024-02-21T00:23:05;101960.75;;;1.83;100.00
57600;BME280;43426;43.594;24.334;2024-02-21T00:25:30;101957.84;;;1.72;100.00
57600;BME280;43426;43.594;24.334;2024-02-21T00:27:56;101955.25;;;1.70;100.00
57600;BME280;43426;43.594;24.334;2024-02-21T00:30:21;101953.00;;;1.63;100.00
57600;BME280;43426;43.594;24.334;2024-02-21T00:32:46;101949.59;;;1.61;100.00
57600;BME280;43426;43.594;24.334;2024-02-21T00:35:12;101944.25;;;1.61;100.00
57600;BME280;43426;43.594;24.334;2024-02-21T00:37:37;101938.25;;;1.57;100.00
57600;BME280;43426;43.594;24.334;2024-02-21T00:40:03;101947.50;;;1.66;100.00
57600;BME280;43426;43.594;24.334;2024-02-21T00:42:28;101943.75;;;1.70;100.00
57600;BME280;43426;43.594;24.334;2024-02-21T00:44:53;101944.84;;;1.66;100.00
57600;BME280;43426;43.594;24.334;2024-02-21T00:47:19;101936.03;;;1.65;100.00
57600;BME280;43426;43.594;24.334;2024-02-21T00:49:44;101936.50;;;1.56;100.00
57600;BME280;43426;43.594;24.334;2024-02-21T00:52:09;101930.66;;;1.49;100.00
57600;BME280;43426;43.594;24.334;2024-02-21T00:54:35;101937.44;;;1.39;100.00
57600;BME280;43426;43.594;24.334;2024-02-21T00:57:00;101926.63;;;1.42;100.00
57600;BME280;43426;43.594;24.334;2024-02-21T00:59:25;101927.63;;;1.40;100.00
57600;BME280;43426;43.594;24.334;2024-02-21T01:01:51;101925.94;;;1.39;100.00
57600;BME280;43426;43.594;24.334;2024-02-21T01:04:16;101920.00;;;1.33;100.00
57600;BME280;43426;43.594;24.334;2024-02-21T01:06:41;101921.19;;;1.28;100.00
57600;BME280;43426;43.594;24.334;2024-02-21T01:09:09;101915.78;;;1.29;100.00
57600;BME280;43426;43.594;24.334;2024-02-21T01:11:34;101918.84;;;1.22;100.00
57600;BME280;43426;43.594;24.334;2024-02-21T01:13:59;101908.47;;;1.33;100.00
57600;BME280;43426;43.594;24.334;2024-02-21T01:16:25;101911.00;;;1.36;100.00
57600;BME280;43426;43.594;24.334;2024-02-21T01:18:51;101914.50;;;1.21;100.00
57600;BME280;43426;43.594;24.334;2024-02-21T01:21:16;101910.22;;;1.34;100.00
57600;BME280;43426;43.594;24.334;2024-02-21T01:23:41;101908.94;;;1.41;100.00
57600;BME280;43426;43.594;24.334;2024-02-21T01:26:07;101908.78;;;1.44;100.00
57600;BME280;43426;43.594;24.334;2024-02-21T01:28:33;101918.56;;;1.44;100.00
57600;BME280;43426;43.594;24.334;2024-02-21T01:30:59;101910.53;;;1.61;100.00
57600;BME280;43426;43.594;24.334;2024-02-21T01:33:24;101898.00;;;1.79;100.00
57600;BME280;43426;43.594;24.334;2024-02-21T01:35:50;101896.91;;;1.83;100.00
57600;BME280;43426;43.594;24.334;2024-02-21T01:38:15;101896.81;;;1.85;100.00
57600;BME280;43426;43.594;24.334;2024-02-21T01:40:41;101894.25;;;1.83;100.00
57600;BME280;43426;43.594;24.334;2024-02-21T01:43:15;101887.19;;;1.98;100.00
57600;BME280;43426;43.594;24.334;2024-02-21T01:45:40;101888.31;;;1.94;100.00
57600;BME280;43426;43.594;24.334;2024-02-21T01:48:06;101892.63;;;1.97;100.00
57600;BME280;43426;43.594;24.334;2024-02-21T01:50:31;101892.53;;;1.98;100.00
57600;BME280;43426;43.594;24.334;2024-02-21T01:52:57;101896.88;;;1.99;100.00
57600;BME280;43426;43.594;24.334;2024-02-21T01:55:22;101894.59;;;2.09;100.00
57600;BME280;43426;43.594;24.334;2024-02-21T01:57:47;101896.28;;;2.10;100.00
57600;BME280;43426;43.594;24.334;2024-02-21T02:00:13;101896.13;;;2.13;100.00
57600;BME280;43426;43.594;24.334;2024-02-21T02:02:39;101897.25;;;2.09;100.00
57600;BME280;43426;43.594;24.334;2024-02-21T02:05:06;101904.44;;;2.07;100.00
57600;BME280;43426;43.594;24.334;2024-02-21T02:07:32;101899.63;;;2.14;100.00
57600;BME280;43426;43.594;24.334;2024-02-21T02:09:58;101904.25;;;2.10;100.00
57600;BME280;43426;43.594;24.334;2024-02-21T02:12:23;101903.94;;;2.16;100.00
57600;BME280;43426;43.594;24.334;2024-02-21T02:14:59;101902.03;;;2.18;100.00
57600;BME280;43426;43.594;24.334;2024-02-21T02:17:24;101896.03;;;2.15;100.00
57600;BME280;43426;43.594;24.334;2024-02-21T02:19:49;101895.75;;;2.19;100.00
57600;BME280;43426;43.594;24.334;2024-02-21T02:22:16;101900.06;;;2.22;100.00
57600;BME280;43426;43.594;24.334;2024-02-21T02:24:44;101890.56;;;2.32;100.00
57600;BME280;43426;43.594;24.334;2024-02-21T02:27:10;101891.69;;;2.44;100.00
57600;BME280;43426;43.594;24.334;2024-02-21T02:29:35;101886.78;;;2.36;100.00
57600;BME280;43426;43.594;24.334;2024-02-21T02:32:00;101902.25;;;2.46;100.00
57600;BME280;43426;43.594;24.334;2024-02-21T02:34:26;101899.56;;;2.46;100.00
57600;BME280;43426;43.594;24.334;2024-02-21T02:36:51;101891.06;;;2.55;100.00
57600;BME280;43426;43.594;24.334;2024-02-21T02:39:16;101896.09;;;2.60;100.00
57600;BME280;43426;43.594;24.334;2024-02-21T02:41:42;101892.53;;;2.75;100.00
57600;BME280;43426;43.594;24.334;2024-02-21T02:44:07;101887.47;;;2.70;100.00
57600;BME280;43426;43.594;24.334;2024-02-21T02:46:34;101896.69;;;2.65;100.00
57600;BME280;43426;43.594;24.334;2024-02-21T02:48:59;101889.25;;;2.70;100.00
57600;BME280;43426;43.594;24.334;2024-02-21T02:51:24;101889.09;;;2.73;100.00
57600;BME280;43426;43.594;24.334;2024-02-21T02:53:50;101888.81;;;2.78;100.00
57600;BME280;43426;43.594;24.334;2024-02-21T02:56:15;101886.06;;;2.79;100.00
57600;BME280;43426;43.594;24.334;2024-02-21T02:58:42;101883.50;;;2.78;100.00
57600;BME280;43426;43.594;24.334;2024-02-21T03:01:07;101877.72;;;2.85;100.00
57600;BME280;43426;43.594;24.334;2024-02-21T03:03:32;101877.81;;;2.84;100.00
57600;BME280;43426;43.594;24.334;2024-02-21T03:05:58;101879.50;;;2.85;100.00
57600;BME280;43426;43.594;24.334;2024-02-21T03:08:23;101881.59;;;2.80;100.00
57600;BME280;43426;43.594;24.334;2024-02-21T03:10:49;101882.44;;;2.80;100.00
57600;BME280;43426;43.594;24.334;2024-02-21T03:13:14;101885.47;;;2.74;100.00
57600;BME280;43426;43.594;24.334;2024-02-21T03:15:39;101887.78;;;2.80;100.00
57600;BME280;43426;43.594;24.334;2024-02-21T03:18:05;101884.19;;;2.81;100.00
57600;BME280;43426;43.594;24.334;2024-02-21T03:20:30;101889.72;;;2.93;100.00
57600;BME280;43426;43.594;24.334;2024-02-21T03:22:56;101887.59;;;2.83;100.00
57600;BME280;43426;43.594;24.334;2024-02-21T03:25:21;101895.00;;;2.78;100.00
57600;BME280;43426;43.594;24.334;2024-02-21T03:27:46;101895.19;;;2.75;100.00
57600;BME280;43426;43.594;24.334;2024-02-21T03:30:12;101893.31;;;2.77;100.00
57600;BME280;43426;43.594;24.334;2024-02-21T03:32:38;101889.59;;;2.80;100.00
57600;BME280;43426;43.594;24.334;2024-02-21T03:35:04;101889.94;;;2.73;100.00
57600;BME280;43426;43.594;24.334;2024-02-21T03:37:30;101891.88;;;2.71;100.00
57600;BME280;43426;43.594;24.334;2024-02-21T03:39:55;101893.13;;;2.80;100.00
57600;BME280;43426;43.594;24.334;2024-02-21T03:42:20;101892.38;;;2.93;100.00
57600;BME280;43426;43.594;24.334;2024-02-21T03:44:46;101897.13;;;2.87;100.00
57600;BME280;43426;43.594;24.334;2024-02-21T03:47:11;101891.28;;;2.81;100.00
57600;BME280;43426;43.594;24.334;2024-02-21T03:49:37;101894.06;;;2.79;100.00
57600;BME280;43426;43.594;24.334;2024-02-21T03:52:02;101894.94;;;2.80;100.00
57600;BME280;43426;43.594;24.334;2024-02-21T03:54:27;101892.25;;;2.80;100.00
57600;BME280;43426;43.594;24.334;2024-02-21T03:56:53;101893.00;;;2.82;100.00
57600;BME280;43426;43.594;24.334;2024-02-21T03:59:18;101892.44;;;2.77;100.00
57600;BME280;43426;43.594;24.334;2024-02-21T04:01:43;101900.63;;;2.73;100.00
57600;BME280;43426;43.594;24.334;2024-02-21T04:04:09;101902.97;;;2.64;100.00
57600;BME280;43426;43.594;24.334;2024-02-21T04:06:35;101901.94;;;2.66;100.00
57600;BME280;43426;43.594;24.334;2024-02-21T04:09:00;101900.72;;;2.72;100.00
57600;BME280;43426;43.594;24.334;2024-02-21T04:11:25;101904.31;;;2.71;100.00
57600;BME280;43426;43.594;24.334;2024-02-21T04:13:51;101895.88;;;2.79;100.00
57600;BME280;43426;43.594;24.334;2024-02-21T04:16:17;101905.22;;;2.86;100.00
57600;BME280;43426;43.594;24.334;2024-02-21T04:18:42;101898.47;;;2.95;100.00
57600;BME280;43426;43.594;24.334;2024-02-21T04:21:13;101900.38;;;3.07;100.00
57600;BME280;43426;43.594;24.334;2024-02-21T04:23:39;101903.69;;;2.96;100.00
57600;BME280;43426;43.594;24.334;2024-02-21T04:26:04;101896.56;;;2.97;100.00
57600;BME280;43426;43.594;24.334;2024-02-21T04:28:29;101897.63;;;2.94;100.00
57600;BME280;43426;43.594;24.334;2024-02-21T04:30:55;101902.94;;;2.94;100.00
57600;BME280;43426;43.594;24.334;2024-02-21T04:33:20;101897.41;;;2.97;100.00
57600;BME280;43426;43.594;24.334;2024-02-21T04:35:45;101897.34;;;3.13;100.00
57600;BME280;43426;43.594;24.334;2024-02-21T04:38:11;101900.66;;;3.17;100.00
57600;BME280;43426;43.594;24.334;2024-02-21T04:40:36;101899.28;;;3.26;100.00
57600;BME280;43426;43.594;24.334;2024-02-21T04:43:01;101897.00;;;3.34;100.00
57600;BME280;43426;43.594;24.334;2024-02-21T04:45:27;101900.88;;;3.43;100.00
57600;BME280;43426;43.594;24.334;2024-02-21T04:47:52;101894.19;;;3.50;100.00
57600;BME280;43426;43.594;24.334;2024-02-21T04:50:17;101895.25;;;3.33;100.00
57600;BME280;43426;43.594;24.334;2024-02-21T04:52:43;101901.84;;;3.27;100.00
57600;BME280;43426;43.594;24.334;2024-02-21T04:55:08;101889.91;;;3.18;100.00
57600;BME280;43426;43.594;24.334;2024-02-21T04:57:34;101889.44;;;3.12;100.00
57600;BME280;43426;43.594;24.334;2024-02-21T04:59:59;101894.31;;;3.19;100.00
57600;BME280;43426;43.594;24.334;2024-02-21T05:02:24;101902.09;;;3.22;100.00
57600;BME280;43426;43.594;24.334;2024-02-21T05:04:52;101892.91;;;3.28;100.00
57600;BME280;43426;43.594;24.334;2024-02-21T05:07:17;101897.94;;;3.33;100.00
57600;BME280;43426;43.594;24.334;2024-02-21T05:09:44;101897.44;;;3.40;100.00
57600;BME280;43426;43.594;24.334;2024-02-21T05:12:09;101900.09;;;3.40;100.00
57600;BME280;43426;43.594;24.334;2024-02-21T05:14:35;101897.38;;;3.42;100.00
57600;BME280;43426;43.594;24.334;2024-02-21T05:17:00;101901.63;;;3.45;100.00
57600;BME280;43426;43.594;24.334;2024-02-21T05:19:25;101908.03;;;3.42;100.00
57600;BME280;43426;43.594;24.334;2024-02-21T05:21:51;101901.94;;;3.40;100.00
57600;BME280;43426;43.594;24.334;2024-02-21T05:24:16;101913.28;;;3.44;100.00
57600;BME280;43426;43.594;24.334;2024-02-21T05:26:41;101912.22;;;3.46;100.00
57600;BME280;43426;43.594;24.334;2024-02-21T05:29:07;101915.34;;;3.53;100.00
57600;BME280;43426;43.594;24.334;2024-02-21T05:34:16;101913.63;;;3.66;100.00
57600;BME280;43426;43.594;24.334;2024-02-21T05:36:41;101922.41;;;3.68;100.00
57600;BME280;43426;43.594;24.334;2024-02-21T05:39:06;101922.97;;;3.73;100.00
57600;BME280;43426;43.594;24.334;2024-02-21T05:41:32;101927.06;;;3.79;100.00
57600;BME280;43426;43.594;24.334;2024-02-21T05:43:57;101934.00;;;3.82;100.00
57600;BME280;43426;43.594;24.334;2024-02-21T05:46:22;101934.69;;;3.85;100.00
57600;BME280;43426;43.594;24.334;2024-02-21T05:48:48;101933.69;;;4.01;100.00
57600;BME280;43426;43.594;24.334;2024-02-21T05:51:13;101939.63;;;4.06;100.00
57600;BME280;43426;43.594;24.334;2024-02-21T05:53:38;101930.69;;;4.20;100.00
57600;BME280;43426;43.594;24.334;2024-02-21T05:56:09;101938.97;;;4.30;100.00
57600;BME280;43426;43.594;24.334;2024-02-21T05:58:35;101932.59;;;4.45;100.00
57600;BME280;43426;43.594;24.334;2024-02-21T06:01:00;101929.03;;;4.59;100.00
57600;BME280;43426;43.594;24.334;2024-02-21T06:03:28;101932.38;;;4.75;100.00
57600;BME280;43426;43.594;24.334;2024-02-21T06:05:53;101939.13;;;4.94;100.00
57600;BME280;43426;43.594;24.334;2024-02-21T06:08:19;101943.53;;;5.08;100.00
57600;BME280;43426;43.594;24.334;2024-02-21T06:10:46;101940.91;;;5.21;100.00
57600;BME280;43426;43.594;24.334;2024-02-21T06:13:13;101947.19;;;5.33;100.00
57600;BME280;43426;43.594;24.334;2024-02-21T06:15:38;101938.31;;;5.45;100.00
57600;BME280;43426;43.594;24.334;2024-02-21T06:18:04;101941.41;;;5.52;100.00
57600;BME280;43426;43.594;24.334;2024-02-21T06:20:29;101944.50;;;5.71;100.00
57600;BME280;43426;43.594;24.334;2024-02-21T06:22:54;101948.13;;;5.83;100.00
57600;BME280;43426;43.594;24.334;2024-02-21T06:25:20;101946.41;;;5.82;100.00
57600;BME280;43426;43.594;24.334;2024-02-21T06:27:45;101950.81;;;5.83;100.00
57600;BME280;43426;43.594;24.334;2024-02-21T06:30:10;101946.63;;;5.79;100.00
57600;BME280;43426;43.594;24.334;2024-02-21T06:32:36;101950.28;;;5.78;100.00
57600;BME280;43426;43.594;24.334;2024-02-21T06:35:01;101947.72;;;5.76;100.00
57600;BME280;43426;43.594;24.334;2024-02-21T06:37:27;101949.81;;;5.97;100.00
57600;BME280;43426;43.594;24.334;2024-02-21T06:39:52;101960.53;;;5.97;100.00
57600;BME280;43426;43.594;24.334;2024-02-21T06:42:17;101960.00;;;5.92;100.00
57600;BME280;43426;43.594;24.334;2024-02-21T06:44:43;101957.56;;;5.89;100.00
57600;BME280;43426;43.594;24.334;2024-02-21T06:47:09;101960.22;;;6.02;100.00
57600;BME280;43426;43.594;24.334;2024-02-21T06:49:34;101952.81;;;6.05;100.00
57600;BME280;43426;43.594;24.334;2024-02-21T06:52:02;101957.59;;;6.26;100.00
57600;BME280;43426;43.594;24.334;2024-02-21T06:54:27;101960.38;;;6.48;100.00
57600;BME280;43426;43.594;24.334;2024-02-21T06:56:52;101959.97;;;6.42;100.00
57600;BME280;43426;43.594;24.334;2024-02-21T06:59:18;101947.09;;;6.47;100.00
57600;BME280;43426;43.594;24.334;2024-02-21T07:01:51;101957.50;;;6.63;100.00
57600;BME280;43426;43.594;24.334;2024-02-21T07:04:16;101966.44;;;6.63;100.00
57600;BME280;43426;43.594;24.334;2024-02-21T07:06:42;101964.09;;;6.94;100.00
57600;BME280;43426;43.594;24.334;2024-02-21T07:09:07;101963.47;;;6.91;100.00
57600;BME280;43426;43.594;24.334;2024-02-21T07:11:32;101958.06;;;6.79;100.00
57600;BME280;43426;43.594;24.334;2024-02-21T07:13:58;101962.34;;;6.82;100.00
57600;BME280;43426;43.594;24.334;2024-02-21T07:16:23;101960.84;;;7.02;100.00
57600;BME280;43426;43.594;24.334;2024-02-21T07:18:48;101959.84;;;7.03;100.00
57600;BME280;43426;43.594;24.334;2024-02-21T07:21:14;101951.69;;;7.05;100.00
57600;BME280;43426;43.594;24.334;2024-02-21T07:23:40;101956.22;;;7.15;100.00
57600;BME280;43426;43.594;24.334;2024-02-21T07:26:06;101964.28;;;7.15;100.00
57600;BME280;43426;43.594;24.334;2024-02-21T07:28:32;101965.03;;;7.18;100.00
57600;BME280;43426;43.594;24.334;2024-02-21T07:30:58;101966.38;;;7.23;100.00
57600;BME280;43426;43.594;24.334;2024-02-21T07:33:23;101961.28;;;7.31;100.00
57600;BME280;43426;43.594;24.334;2024-02-21T07:35:49;101963.59;;;7.36;100.00
57600;BME280;43426;43.594;24.334;2024-02-21T07:38:14;101963.00;;;7.66;100.00
57600;BME280;43426;43.594;24.334;2024-02-21T07:40:39;101957.63;;;7.66;100.00
57600;BME280;43426;43.594;24.334;2024-02-21T07:43:05;101967.66;;;7.87;100.00
57600;BME280;43426;43.594;24.334;2024-02-21T07:45:30;101970.34;;;7.87;100.00
57600;BME280;43426;43.594;24.334;2024-02-21T07:47:56;101962.16;;;7.89;100.00
57600;BME280;43426;43.594;24.334;2024-02-21T07:50:21;101969.25;;;7.90;100.00
57600;BME280;43426;43.594;24.334;2024-02-21T07:52:47;101975.44;;;8.13;100.00
57600;BME280;43426;43.594;24.334;2024-02-21T07:55:12;101970.06;;;8.13;100.00
57600;BME280;43426;43.594;24.334;2024-02-21T07:57:37;101978.38;;;8.21;100.00
57600;BME280;43426;43.594;24.334;2024-02-21T08:00:03;101963.66;;;8.37;98.30
57600;BME280;43426;43.594;24.334;2024-02-21T08:02:33;101965.69;;;8.44;98.10
57600;BME280;43426;43.594;24.334;2024-02-21T08:04:58;101964.28;;;8.51;97.91
57600;BME280;43426;43.594;24.334;2024-02-21T08:07:24;101964.59;;;8.58;98.18
57600;BME280;43426;43.594;24.334;2024-02-21T08:09:49;101967.72;;;8.75;98.23
57600;BME280;43426;43.594;24.334;2024-02-21T08:12:14;101959.34;;;8.89;99.00
57600;BME280;43426;43.594;24.334;2024-02-21T08:14:40;101961.13;;;9.00;96.60
57600;BME280;43426;43.594;24.334;2024-02-21T08:17:05;101963.81;;;9.21;98.26
57600;BME280;43426;43.594;24.334;2024-02-21T08:19:30;101959.75;;;9.58;94.74
57600;BME280;43426;43.594;24.334;2024-02-21T08:21:56;101964.81;;;9.72;93.45
57600;BME280;43426;43.594;24.334;2024-02-21T08:24:21;101955.72;;;9.73;93.38
57600;BME280;43426;43.594;24.334;2024-02-21T08:26:48;101955.75;;;9.83;92.79
57600;BME280;43426;43.594;24.334;2024-02-21T08:29:13;101954.63;;;9.85;92.86
57600;BME280;43426;43.594;24.334;2024-02-21T08:31:39;101956.66;;;9.93;91.55
57600;BME280;43426;43.594;24.334;2024-02-21T08:34:04;101959.25;;;10.14;91.07
57600;BME280;43426;43.594;24.334;2024-02-21T08:36:33;101965.34;;;10.07;89.77
57600;BME280;43426;43.594;24.334;2024-02-21T08:38:59;101959.28;;;10.34;89.41
57600;BME280;43426;43.594;24.334;2024-02-21T08:41:24;101958.09;;;10.87;88.44
57600;BME280;43426;43.594;24.334;2024-02-21T08:43:53;101950.53;;;11.00;86.30
57600;BME280;43426;43.594;24.334;2024-02-21T08:46:25;101956.94;;;11.09;85.60
57600;BME280;43426;43.594;24.334;2024-02-21T08:48:51;101948.56;;;11.02;86.24
57600;BME280;43426;43.594;24.334;2024-02-21T08:51:17;101956.63;;;11.22;84.55
57600;BME280;43426;43.594;24.334;2024-02-21T08:53:43;101955.03;;;11.29;83.92
57600;BME280;43426;43.594;24.334;2024-02-21T08:56:08;101951.91;;;11.24;83.67
57600;BME280;43426;43.594;24.334;2024-02-21T08:58:34;101953.22;;;11.00;82.75
57600;BME280;43426;43.594;24.334;2024-02-21T09:01:00;101955.13;;;10.70;83.65
57600;BME280;43426;43.594;24.334;2024-02-21T09:03:26;101958.38;;;10.64;84.80
57600;BME280;43426;43.594;24.334;2024-02-21T09:05:51;101954.22;;;10.50;85.05
57600;BME280;43426;43.594;24.334;2024-02-21T09:08:16;101948.00;;;10.69;86.23
57600;BME280;43426;43.594;24.334;2024-02-21T09:10:43;101954.84;;;11.40;82.47
57600;BME280;43426;43.594;24.334;2024-02-21T09:13:08;101944.31;;;12.13;79.83
57600;BME280;43426;43.594;24.334;2024-02-21T09:15:34;101942.53;;;12.67;77.93
57600;BME280;43426;43.594;24.334;2024-02-21T09:17:59;101946.13;;;12.94;74.12
57600;BME280;43426;43.594;24.334;2024-02-21T09:20:24;101937.63;;;12.89;73.19
57600;BME280;43426;43.594;24.334;2024-02-21T09:22:50;101946.00;;;12.77;71.17
57600;BME280;43426;43.594;24.334;2024-02-21T09:25:17;101949.03;;;12.56;70.62
57600;BME280;43426;43.594;24.334;2024-02-21T09:27:43;101947.88;;;12.59;72.36
57600;BME280;43426;43.594;24.334;2024-02-21T09:30:08;101949.25;;;12.63;70.69
57600;BME280;43426;43.594;24.334;2024-02-21T09:32:34;101935.88;;;12.62;71.14
57600;BME280;43426;43.594;24.334;2024-02-21T09:34:59;101953.59;;;12.92;69.72
57600;BME280;43426;43.594;24.334;2024-02-21T09:37:24;101939.66;;;12.69;70.14
57600;BME280;43426;43.594;24.334;2024-02-21T09:39:50;101939.00;;;12.93;69.54
57600;BME280;43426;43.594;24.334;2024-02-21T09:42:19;101942.69;;;12.84;70.88
57600;BME280;43426;43.594;24.334;2024-02-21T09:44:45;101945.16;;;12.77;69.78
57600;BME280;43426;43.594;24.334;2024-02-21T09:47:34;101930.00;;;12.48;71.01
57600;BME280;43426;43.594;24.334;2024-02-21T09:49:56;101935.53;;;13.01;69.18
57600;BME280;43426;43.594;24.334;2024-02-21T09:52:22;101932.25;;;13.41;69.24
57600;BME280;43426;43.594;24.334;2024-02-21T09:54:48;101930.97;;;13.88;68.35
57600;BME280;43426;43.594;24.334;2024-02-21T09:57:14;101925.44;;;14.06;65.43
57600;BME280;43426;43.594;24.334;2024-02-21T09:59:40;101919.72;;;14.26;63.31
57600;BME280;43426;43.594;24.334;2024-02-21T10:02:08;101917.53;;;14.38;62.84
57600;BME280;43426;43.594;24.334;2024-02-21T10:04:34;101924.06;;;14.78;61.68
57600;BME280;43426;43.594;24.334;2024-02-21T10:06:59;101921.47;;;14.60;61.48
57600;BME280;43426;43.594;24.334;2024-02-21T10:09:25;101915.44;;;14.07;62.71
57600;BME280;43426;43.594;24.334;2024-02-21T10:11:54;101920.91;;;13.72;63.80
57600;BME280;43426;43.594;24.334;2024-02-21T10:14:20;101918.88;;;13.40;64.18
57600;BME280;43426;43.594;24.334;2024-02-21T10:16:49;101914.38;;;13.04;65.25
57600;BME280;43426;43.594;24.334;2024-02-21T10:19:18;101913.88;;;12.83;66.23
57600;BME280;43426;43.594;24.334;2024-02-21T10:21:43;101901.34;;;13.34;66.73
57600;BME280;43426;43.594;24.334;2024-02-21T10:24:10;101902.66;;;13.48;65.54
57600;BME280;43426;43.594;24.334;2024-02-21T10:26:37;101907.78;;;13.33;63.91
57600;BME280;43426;43.594;24.334;2024-02-21T10:29:03;101896.03;;;12.98;64.58
57600;BME280;43426;43.594;24.334;2024-02-21T10:31:28;101897.03;;;12.97;65.61
57600;BME280;43426;43.594;24.334;2024-02-21T10:33:57;101888.97;;;13.05;65.09
57600;BME280;43426;43.594;24.334;2024-02-21T10:36:23;101888.63;;;13.00;64.60
57600;BME280;43426;43.594;24.334;2024-02-21T10:38:49;101883.59;;;13.14;63.50
57600;BME280;43426;43.594;24.334;2024-02-21T10:41:15;101875.69;;;12.94;63.79
57600;BME280;43426;43.594;24.334;2024-02-21T10:43:43;101873.88;;;13.29;64.44
57600;BME280;43426;43.594;24.334;2024-02-21T10:46:11;101866.41;;;14.00;57.99
57600;BME280;43426;43.594;24.334;2024-02-21T10:48:46;101861.19;;;14.40;57.20
57600;BME280;43426;43.594;24.334;2024-02-21T10:51:16;101854.41;;;14.93;56.05
57600;BME280;43426;43.594;24.334;2024-02-21T10:56:30;101851.19;;;14.90;55.52
57600;BME280;43426;43.594;24.334;2024-02-21T10:58:59;101861.38;;;14.88;56.05
57600;BME280;43426;43.594;24.334;2024-02-21T11:01:25;101850.97;;;15.16;53.85
57600;BME280;43426;43.594;24.334;2024-02-21T11:03:52;101856.72;;;15.21;55.83
57600;BME280;43426;43.594;24.334;2024-02-21T11:06:19;101853.81;;;15.23;52.40
57600;BME280;43426;43.594;24.334;2024-02-21T11:08:45;101847.94;;;14.45;52.30
57600;BME280;43426;43.594;24.334;2024-02-21T11:11:12;101850.34;;;13.64;55.99
57600;BME280;43426;43.594;24.334;2024-02-21T11:13:42;101841.13;;;13.40;55.57
57600;BME280;43426;43.594;24.334;2024-02-21T11:16:11;101841.72;;;13.34;56.22
57600;BME280;43426;43.594;24.334;2024-02-21T11:18:37;101835.78;;;13.31;56.42
57600;BME280;43426;43.594;24.334;2024-02-21T11:21:03;101836.91;;;13.46;56.43
57600;BME280;43426;43.594;24.334;2024-02-21T11:23:30;101824.69;;;14.18;54.78
57600;BME280;43426;43.594;24.334;2024-02-21T11:26:08;101830.28;;;14.24;52.20
57600;BME280;43426;43.594;24.334;2024-02-21T11:28:33;101817.00;;;13.88;53.94
57600;BME280;43426;43.594;24.334;2024-02-21T11:31:12;101817.84;;;13.81;55.17
57600;BME280;43426;43.594;24.334;2024-02-21T11:33:41;101816.06;;;14.39;55.99
57600;BME280;43426;43.594;24.334;2024-02-21T11:36:10;101819.25;;;14.59;52.71
57600;BME280;43426;43.594;24.334;2024-02-21T11:38:35;101814.13;;;13.98;53.66
57600;BME280;43426;43.594;24.334;2024-02-21T11:41:01;101809.34;;;13.75;55.14
57600;BME280;43426;43.594;24.334;2024-02-21T11:43:26;101809.91;;;14.04;53.89
57600;BME280;43426;43.594;24.334;2024-02-21T11:46:01;101798.25;;;14.69;53.76
57600;BME280;43426;43.594;24.334;2024-02-21T11:48:27;101798.81;;;15.12;50.92
57600;BME280;43426;43.594;24.334;2024-02-21T11:50:53;101788.53;;;15.31;47.34
57600;BME280;43426;43.594;24.334;2024-02-21T11:53:20;101794.16;;;14.65;49.13
57600;BME280;43426;43.594;24.334;2024-02-21T11:55:45;101789.03;;;14.62;51.64
57600;BME280;43426;43.594;24.334;2024-02-21T11:58:11;101784.56;;;15.02;52.31
57600;BME280;43426;43.594;24.334;2024-02-21T12:00:36;101783.66;;;15.18;50.38
57600;BME280;43426;43.594;24.334;2024-02-21T12:03:01;101781.53;;;14.97;50.47
57600;BME280;43426;43.594;24.334;2024-02-21T12:05:27;101779.47;;;14.99;50.34
57600;BME280;43426;43.594;24.334;2024-02-21T12:07:54;101774.81;;;14.68;48.96
57600;BME280;43426;43.594;24.334;2024-02-21T12:10:20;101772.75;;;14.54;50.19
57600;BME280;43426;43.594;24.334;2024-02-21T12:12:45;101771.03;;;14.86;50.45
57600;BME280;43426;43.594;24.334;2024-02-21T12:15:10;101760.72;;;15.52;49.11
57600;BME280;43426;43.594;24.334;2024-02-21T12:17:36;101759.63;;;15.93;48.91
57600;BME280;43426;43.594;24.334;2024-02-21T12:20:05;101745.34;;;16.14;48.24
57600;BME280;43426;43.594;24.334;2024-02-21T12:22:35;101758.53;;;15.79;47.59
57600;BME280;43426;43.594;24.334;2024-02-21T12:25:02;101752.13;;;15.01;48.91
57600;BME280;43426;43.594;24.334;2024-02-21T12:27:28;101759.88;;;14.14;51.32
57600;BME280;43426;43.594;24.334;2024-02-21T12:29:53;101755.47;;;14.22;51.89
57600;BME280;43426;43.594;24.334;2024-02-21T12:32:19;101754.44;;;14.64;50.67
57600;BME280;43426;43.594;24.334;2024-02-21T12:34:44;101756.03;;;14.98;49.57
57600;BME280;43426;43.594;24.334;2024-02-21T12:37:10;101748.91;;;14.97;49.26
57600;BME280;43426;43.594;24.334;2024-02-21T12:39:38;101744.28;;;15.06;49.43